createdAt,value
2023-05-10T00:00:40.405Z,2.47
2023-05-10T00:03:07.304Z,2.50
2023-05-10T00:05:34.167Z,2.30
2023-05-10T00:08:01.093Z,2.70
2023-05-10T00:10:27.923Z,2.17
2023-05-10T00:12:54.688Z,2.15
2023-05-10T00:15:21.556Z,2.58
2023-05-10T00:17:48.426Z,2.60
2023-05-10T00:20:15.456Z,2.05
2023-05-10T00:22:42.382Z,2.65
2023-05-10T00:25:10.155Z,2.70
2023-05-10T00:27:36.951Z,2.40
2023-05-10T00:30:04.054Z,2.38
2023-05-10T00:32:30.886Z,2.63
2023-05-10T00:34:57.682Z,2.30
2023-05-10T00:37:24.511Z,2.25
2023-05-10T00:39:51.309Z,2.17
2023-05-10T00:42:18.132Z,2.42
2023-05-10T00:44:44.908Z,1.83
2023-05-10T00:47:12.586Z,2.55
2023-05-10T00:49:39.576Z,2.10
2023-05-10T00:52:07.012Z,2.40
2023-05-10T00:54:33.807Z,2.25
2023-05-10T00:57:00.621Z,2.72
2023-05-10T00:59:27.446Z,2.30
2023-05-10T01:01:54.728Z,2.40
2023-05-10T01:04:26.573Z,2.47
2023-05-10T01:06:54.799Z,2.80
2023-05-10T01:09:22.814Z,2.80
2023-05-10T01:11:50.335Z,2.65
2023-05-10T01:14:19.667Z,3.58
2023-05-10T01:16:48.662Z,2.50
2023-05-10T01:19:25.075Z,2.40
2023-05-10T01:22:18.409Z,2.63
2023-05-10T01:25:04.288Z,2.90
2023-05-10T01:28:24.812Z,2.75
2023-05-10T01:31:05.516Z,2.70
2023-05-10T01:34:00.358Z,2.75
2023-05-10T01:36:46.659Z,2.45
2023-05-10T01:39:33.945Z,2.72
2023-05-10T01:42:19.046Z,2.67
2023-05-10T01:45:05.866Z,2.70
2023-05-10T01:47:40.180Z,2.78
2023-05-10T01:52:43.066Z,2.47
2023-05-10T01:55:14.660Z,2.58
2023-05-10T01:57:45.316Z,3.03
2023-05-10T02:00:13.191Z,2.92
2023-05-10T02:02:47.287Z,2.50
2023-05-10T02:05:16.172Z,2.50
2023-05-10T02:07:44.438Z,2.60
2023-05-10T02:10:12.640Z,3.10
2023-05-10T02:12:44.476Z,2.95
2023-05-10T02:15:14.091Z,2.78
2023-05-10T02:17:43.209Z,2.55
2023-05-10T02:20:11.326Z,2.72
2023-05-10T02:22:39.936Z,2.80
2023-05-10T02:25:10.104Z,2.63
2023-05-10T02:27:38.229Z,3.58
2023-05-10T02:30:07.340Z,2.80
2023-05-10T02:32:35.462Z,2.97
2023-05-10T02:35:04.836Z,3.10
2023-05-10T02:37:33.260Z,2.85
2023-05-10T02:40:00.694Z,3.10
2023-05-10T02:42:28.812Z,2.85
2023-05-10T02:45:04.497Z,2.55
2023-05-10T02:47:31.428Z,2.40
2023-05-10T02:49:58.293Z,3.05
2023-05-10T02:52:31.886Z,3.00
2023-05-10T02:55:02.227Z,2.83
2023-05-10T02:57:34.869Z,2.90
2023-05-10T03:00:04.840Z,2.90
2023-05-10T03:02:32.024Z,2.72
2023-05-10T03:04:59.068Z,2.67
2023-05-10T03:07:26.085Z,3.10
2023-05-10T03:09:53.515Z,3.17
2023-05-10T03:12:29.213Z,2.72
2023-05-10T03:15:34.846Z,3.10
2023-05-10T03:18:08.885Z,3.08
2023-05-10T03:20:49.644Z,2.97
2023-05-10T03:23:24.195Z,2.80
2023-05-10T03:25:51.931Z,3.10
2023-05-10T03:28:20.271Z,2.70
2023-05-10T03:30:47.848Z,2.78
2023-05-10T03:33:15.099Z,2.60
2023-05-10T03:35:41.932Z,2.78
2023-05-10T03:38:08.747Z,3.35
2023-05-10T03:40:35.621Z,3.25
2023-05-10T03:43:02.415Z,2.75
2023-05-10T03:45:29.247Z,3.08
2023-05-10T03:47:56.316Z,3.13
2023-05-10T03:50:23.288Z,2.80
2023-05-10T03:52:50.080Z,2.90
2023-05-10T03:55:17.304Z,3.00
2023-05-10T03:57:44.147Z,2.92
2023-05-10T04:00:11.638Z,2.90
2023-05-10T04:02:38.747Z,2.80
2023-05-10T04:05:06.066Z,2.95
2023-05-10T04:07:32.805Z,3.10
2023-05-10T04:09:59.573Z,3.00
2023-05-10T04:12:26.507Z,3.22
2023-05-10T04:14:53.338Z,3.28
2023-05-10T04:17:20.203Z,3.00
2023-05-10T04:19:47.023Z,2.88
2023-05-10T04:22:13.771Z,2.83
2023-05-10T04:24:40.616Z,3.08
2023-05-10T04:27:07.478Z,3.08
2023-05-10T04:29:34.231Z,2.97
2023-05-10T04:32:01.019Z,3.00
2023-05-10T04:34:27.771Z,3.30
2023-05-10T04:36:54.540Z,3.22
2023-05-10T04:39:21.360Z,3.40
2023-05-10T04:41:48.124Z,2.88
2023-05-10T04:44:14.880Z,2.92
2023-05-10T04:46:41.854Z,2.90
2023-05-10T04:49:08.803Z,3.35
2023-05-10T04:51:35.589Z,2.60
2023-05-10T04:54:06.668Z,3.15
2023-05-10T04:56:34.237Z,3.00
2023-05-10T04:59:01.059Z,2.67
2023-05-10T05:01:28.018Z,2.97
2023-05-10T05:03:55.076Z,3.67
2023-05-10T05:06:22.184Z,3.13
2023-05-10T05:08:50.490Z,3.45
2023-05-10T05:11:18.124Z,3.78
2023-05-10T05:13:44.979Z,3.75
2023-05-10T05:16:12.382Z,3.70
2023-05-10T05:18:39.465Z,4.15
2023-05-10T05:21:19.971Z,3.97
2023-05-10T05:23:47.512Z,3.40
2023-05-10T05:26:14.330Z,3.92
2023-05-10T05:28:41.128Z,3.75
2023-05-10T05:31:08.652Z,3.83
2023-05-10T05:33:35.979Z,4.10
2023-05-10T05:36:05.158Z,4.50
2023-05-10T05:38:32.012Z,3.58
2023-05-10T05:40:58.942Z,3.83
2023-05-10T05:43:25.949Z,4.43
2023-05-10T05:45:56.958Z,4.68
2023-05-10T05:48:23.803Z,4.07
2023-05-10T05:50:51.024Z,4.40
2023-05-10T05:53:18.114Z,3.80
2023-05-10T05:55:55.770Z,3.85
2023-05-10T05:58:23.556Z,4.40
2023-05-10T06:00:52.006Z,4.10
2023-05-10T06:03:19.703Z,4.90
2023-05-10T06:05:46.558Z,4.07
2023-05-10T06:08:13.363Z,4.20
2023-05-10T06:10:40.108Z,3.97
2023-05-10T06:13:06.981Z,4.05
2023-05-10T06:15:34.276Z,3.85
2023-05-10T06:18:01.361Z,4.28
2023-05-10T06:20:28.281Z,4.30
2023-05-10T06:22:55.160Z,4.10
2023-05-10T06:25:22.336Z,4.35
2023-05-10T06:27:52.677Z,5.25
2023-05-10T06:30:21.079Z,5.15
2023-05-10T06:32:47.989Z,4.05
2023-05-10T06:35:14.882Z,4.45
2023-05-10T06:37:41.923Z,4.90
2023-05-10T06:40:09.179Z,4.00
2023-05-10T06:42:35.998Z,4.80
2023-05-10T06:45:03.184Z,4.30
2023-05-10T06:47:29.988Z,4.13
2023-05-10T06:49:56.827Z,4.50
2023-05-10T06:52:24.272Z,4.60
2023-05-10T06:54:51.266Z,3.95
2023-05-10T06:57:30.515Z,3.97
2023-05-10T06:59:59.940Z,3.70
2023-05-10T07:02:27.057Z,4.82
2023-05-10T07:04:54.042Z,4.18
2023-05-10T07:07:20.992Z,3.85
2023-05-10T07:09:47.866Z,4.38
2023-05-10T07:12:15.853Z,4.30
2023-05-10T07:14:43.504Z,4.13
2023-05-10T07:17:10.890Z,4.43
2023-05-10T07:19:37.702Z,4.20
2023-05-10T07:22:04.489Z,4.07
2023-05-10T07:24:32.318Z,3.92
2023-05-10T07:26:59.171Z,4.72
2023-05-10T07:29:26.345Z,4.55
2023-05-10T07:31:53.866Z,3.80
2023-05-10T07:34:21.807Z,4.18
2023-05-10T07:36:48.674Z,3.78
2023-05-10T07:39:21.405Z,3.90
2023-05-10T07:41:53.794Z,4.00
2023-05-10T07:44:21.262Z,4.20
2023-05-10T07:46:48.981Z,4.32
2023-05-10T07:49:16.032Z,4.00
2023-05-10T07:51:43.455Z,4.22
2023-05-10T07:54:10.321Z,4.20
2023-05-10T07:56:37.189Z,4.38
2023-05-10T07:59:05.952Z,4.05
2023-05-10T08:01:34.401Z,3.97
2023-05-10T08:04:02.809Z,3.65
2023-05-10T08:06:30.817Z,3.50
2023-05-10T08:08:57.926Z,3.70
2023-05-10T08:11:24.941Z,3.65
2023-05-10T08:13:52.242Z,4.15
2023-05-10T08:16:19.050Z,3.58
2023-05-10T08:18:47.715Z,3.40
2023-05-10T08:21:15.784Z,3.65
2023-05-10T08:23:44.521Z,3.65
2023-05-10T08:26:11.697Z,3.20
2023-05-10T08:28:38.616Z,3.17
2023-05-10T08:31:06.258Z,3.67
2023-05-10T08:33:33.198Z,3.70
2023-05-10T08:35:59.999Z,3.28
2023-05-10T08:38:27.086Z,2.88
2023-05-10T08:40:59.484Z,2.92
2023-05-10T08:43:30.835Z,2.72
2023-05-10T08:46:01.705Z,2.50
2023-05-10T08:48:31.425Z,2.72
2023-05-10T08:51:01.654Z,2.67
2023-05-10T08:53:32.139Z,2.53
2023-05-10T08:55:59.098Z,2.33
2023-05-10T08:58:26.489Z,2.22
2023-05-10T09:00:53.794Z,2.15
2023-05-10T09:03:20.851Z,1.70
2023-05-10T09:05:49.064Z,2.00
2023-05-10T09:08:17.290Z,1.88
2023-05-10T09:10:45.724Z,1.33
2023-05-10T09:13:13.914Z,1.40
2023-05-10T09:15:40.909Z,1.70
2023-05-10T09:18:07.995Z,1.40
2023-05-10T09:20:34.837Z,1.67
2023-05-10T09:23:01.598Z,1.30
2023-05-10T09:25:28.424Z,1.42
2023-05-10T09:27:56.320Z,2.30
2023-05-10T09:30:30.914Z,1.40
2023-05-10T09:32:59.508Z,1.13
2023-05-10T09:35:30.075Z,2.45
2023-05-10T09:38:01.036Z,1.33
2023-05-10T09:40:30.243Z,1.38
2023-05-10T09:43:03.217Z,0.70
2023-05-10T09:45:32.752Z,0.82
2023-05-10T09:48:00.787Z,0.60
2023-05-10T09:50:28.337Z,0.68
2023-05-10T09:52:58.785Z,0.90
2023-05-10T09:55:39.620Z,0.70
2023-05-10T09:58:11.110Z,0.80
2023-05-10T10:00:41.079Z,0.80
2023-05-10T10:03:15.527Z,1.00
2023-05-10T10:08:11.983Z,0.70
2023-05-10T10:10:41.130Z,0.80
2023-05-10T10:13:09.478Z,0.93
2023-05-10T10:15:36.808Z,0.95
2023-05-10T10:18:06.936Z,0.95
2023-05-10T10:20:34.602Z,1.38
2023-05-10T10:23:01.415Z,1.20
2023-05-10T10:25:28.328Z,1.58
2023-05-10T10:27:55.081Z,0.93
2023-05-10T10:30:44.515Z,1.48
2023-05-10T10:33:57.494Z,1.17
2023-05-10T10:36:24.287Z,1.35
2023-05-10T10:39:02.283Z,1.48
2023-05-10T10:41:37.707Z,1.55
2023-05-10T10:44:23.545Z,1.50
2023-05-10T10:47:13.045Z,1.30
2023-05-10T10:49:42.698Z,1.63
2023-05-10T10:52:24.297Z,1.42
2023-05-10T10:55:07.371Z,1.70
2023-05-10T10:57:46.329Z,2.00
2023-05-10T11:00:24.058Z,1.92
2023-05-10T11:02:57.048Z,1.60
2023-05-10T11:05:29.622Z,1.77
2023-05-10T11:07:59.242Z,1.90
2023-05-10T11:10:27.837Z,2.17
2023-05-10T11:13:10.377Z,2.42
2023-05-10T11:15:39.839Z,1.75
2023-05-10T11:18:26.289Z,2.05
2023-05-10T11:20:57.443Z,2.25
2023-05-10T11:23:24.415Z,2.15
2023-05-10T11:25:51.249Z,2.20
2023-05-10T11:28:20.306Z,2.50
2023-05-10T11:30:47.176Z,2.10
2023-05-10T11:33:18.858Z,2.28
2023-05-10T11:35:45.970Z,2.20
2023-05-10T11:38:14.712Z,2.40
2023-05-10T11:40:42.414Z,2.35
2023-05-10T11:43:11.721Z,2.10
2023-05-10T11:45:38.736Z,2.40
2023-05-10T11:48:06.097Z,2.63
2023-05-10T11:50:33.621Z,2.22
2023-05-10T11:53:00.420Z,2.03
2023-05-10T11:55:27.444Z,2.33
2023-05-10T11:57:55.913Z,2.30
2023-05-10T12:00:23.002Z,2.08
2023-05-10T12:02:50.124Z,2.38
2023-05-10T12:05:17.645Z,2.42
2023-05-10T12:07:44.540Z,2.38
2023-05-10T12:10:15.826Z,1.75
2023-05-10T12:12:48.326Z,1.77
2023-05-10T12:15:24.671Z,2.05
2023-05-10T12:17:52.377Z,2.50
2023-05-10T12:20:24.477Z,2.67
2023-05-10T12:23:00.173Z,1.98
2023-05-10T12:25:32.900Z,2.38
2023-05-10T12:28:02.085Z,2.30
2023-05-10T12:30:31.344Z,2.40
2023-05-10T12:33:08.355Z,2.35
2023-05-10T12:35:54.528Z,2.92
2023-05-10T12:38:30.625Z,2.53
2023-05-10T12:41:09.883Z,2.38
2023-05-10T12:43:37.305Z,2.53
2023-05-10T12:46:15.352Z,3.20
2023-05-10T12:48:44.435Z,2.92
2023-05-10T12:51:13.765Z,2.42
2023-05-10T12:53:43.497Z,2.25
2023-05-10T12:56:11.970Z,2.58
2023-05-10T12:58:39.473Z,1.85
2023-05-10T13:01:06.717Z,2.47
2023-05-10T13:03:33.827Z,1.80
2023-05-10T13:06:00.778Z,2.20
2023-05-10T13:08:27.726Z,2.53
2023-05-10T13:10:54.510Z,2.50
2023-05-10T13:13:21.303Z,1.88
2023-05-10T13:15:48.099Z,2.15
2023-05-10T13:18:14.875Z,2.15
2023-05-10T13:20:41.700Z,2.03
2023-05-10T13:23:08.510Z,1.98
2023-05-10T13:25:35.362Z,1.85
2023-05-10T13:28:02.344Z,2.50
2023-05-10T13:30:29.869Z,2.15
2023-05-10T13:32:56.743Z,1.90
2023-05-10T13:35:23.567Z,1.92
2023-05-10T13:37:50.471Z,2.17
2023-05-10T13:40:17.980Z,2.30
2023-05-10T13:42:44.956Z,2.47
2023-05-10T13:45:13.294Z,2.08
2023-05-10T13:47:40.409Z,2.15
2023-05-10T13:50:07.915Z,2.25
2023-05-10T13:52:34.826Z,2.20
2023-05-10T13:55:01.669Z,2.20
2023-05-10T13:57:29.788Z,2.55
2023-05-10T13:59:58.170Z,2.20
2023-05-10T14:02:25.651Z,1.90
2023-05-10T14:04:52.658Z,2.33
2023-05-10T14:07:19.432Z,2.15
2023-05-10T14:09:46.197Z,2.40
2023-05-10T14:12:13.030Z,3.25
2023-05-10T14:14:40.534Z,3.30
2023-05-10T14:17:08.248Z,3.08
2023-05-10T14:19:36.310Z,3.38
2023-05-10T14:22:03.719Z,2.97
2023-05-10T14:24:30.526Z,2.95
2023-05-10T14:26:57.560Z,3.17
2023-05-10T14:29:24.393Z,2.80
2023-05-10T14:31:51.276Z,2.88
2023-05-10T14:34:18.149Z,3.72
2023-05-10T14:36:44.977Z,3.65
2023-05-10T14:39:13.669Z,3.67
2023-05-10T14:41:43.793Z,4.10
2023-05-10T14:44:11.550Z,5.43
2023-05-10T14:46:39.049Z,5.40
2023-05-10T14:49:05.891Z,5.35
2023-05-10T14:51:32.712Z,4.32
2023-05-10T14:53:59.734Z,3.10
2023-05-10T14:56:27.052Z,3.33
2023-05-10T14:58:53.919Z,3.30
2023-05-10T15:01:21.283Z,3.60
2023-05-10T15:03:48.659Z,3.55
2023-05-10T15:06:17.327Z,3.20
2023-05-10T15:08:44.387Z,2.70
2023-05-10T15:11:14.159Z,2.75
2023-05-10T15:13:40.974Z,2.67
2023-05-10T15:16:07.886Z,2.92
2023-05-10T15:18:34.815Z,3.05
2023-05-10T15:21:01.825Z,2.45
2023-05-10T15:23:29.742Z,2.38
2023-05-10T15:25:58.069Z,2.47
2023-05-10T15:28:24.966Z,1.95
2023-05-10T15:30:52.161Z,2.60
2023-05-10T15:33:18.934Z,2.33
2023-05-10T15:35:45.752Z,1.63
2023-05-10T15:38:12.623Z,2.35
2023-05-10T15:40:39.438Z,2.15
2023-05-10T15:43:06.285Z,2.20
2023-05-10T15:45:35.171Z,1.90
2023-05-10T15:48:03.601Z,2.22
2023-05-10T15:50:30.396Z,2.33
2023-05-10T15:52:57.235Z,2.35
2023-05-10T15:55:24.011Z,2.20
2023-05-10T15:57:51.287Z,2.78
2023-05-10T16:00:18.566Z,2.67
2023-05-10T16:02:45.490Z,2.38
2023-05-10T16:05:13.779Z,2.97
2023-05-10T16:07:42.035Z,3.08
2023-05-10T16:10:11.186Z,2.92
2023-05-10T16:12:39.118Z,2.95
2023-05-10T16:15:07.028Z,4.20
2023-05-10T16:17:34.012Z,3.30
2023-05-10T16:20:01.261Z,4.53
2023-05-10T16:22:28.753Z,3.08
2023-05-10T16:24:57.103Z,4.25
2023-05-10T16:27:24.043Z,3.72
2023-05-10T16:29:50.999Z,4.30
2023-05-10T16:32:17.792Z,3.50
2023-05-10T16:34:44.678Z,4.28
2023-05-10T16:37:11.473Z,4.18
2023-05-10T16:39:38.382Z,4.55
2023-05-10T16:42:05.212Z,3.65
2023-05-10T16:44:31.984Z,4.45
2023-05-10T16:46:58.785Z,4.00
2023-05-10T16:49:26.477Z,3.85
2023-05-10T16:51:53.260Z,4.13
2023-05-10T16:54:21.595Z,3.38
2023-05-10T16:56:48.392Z,3.95
2023-05-10T16:59:15.168Z,3.92
2023-05-10T17:01:41.979Z,4.15
2023-05-10T17:04:09.070Z,4.70
2023-05-10T17:06:37.005Z,3.95
2023-05-10T17:09:05.602Z,4.07
2023-05-10T17:11:32.979Z,5.30
2023-05-10T17:14:01.323Z,5.60
2023-05-10T17:16:29.686Z,5.72
2023-05-10T17:18:56.655Z,4.47
2023-05-10T17:21:23.457Z,5.03
2023-05-10T17:23:50.637Z,5.72
2023-05-10T17:26:17.487Z,6.35
2023-05-10T17:28:44.247Z,6.60
2023-05-10T17:31:11.714Z,6.78
2023-05-10T17:33:38.626Z,6.57
2023-05-10T17:36:05.620Z,6.68
2023-05-10T17:38:32.419Z,6.25
2023-05-10T17:40:59.167Z,7.10
2023-05-10T17:43:26.162Z,7.68
2023-05-10T17:45:53.049Z,7.82
2023-05-10T17:48:19.916Z,8.00
2023-05-10T17:50:46.824Z,7.43
2023-05-10T17:53:13.620Z,7.93
2023-05-10T17:55:41.546Z,7.38
2023-05-10T17:58:10.387Z,7.80
2023-05-10T18:00:37.400Z,8.18
2023-05-10T18:03:05.397Z,7.70
2023-05-10T18:05:35.879Z,7.95
2023-05-10T18:08:04.099Z,6.95
2023-05-10T18:10:31.389Z,8.25
2023-05-10T18:13:02.344Z,7.60
2023-05-10T18:15:29.132Z,7.70
2023-05-10T18:17:56.751Z,7.65
2023-05-10T18:20:24.090Z,7.05
2023-05-10T18:22:50.908Z,7.70
2023-05-10T18:25:17.939Z,7.32
2023-05-10T18:27:44.899Z,7.20
2023-05-10T18:30:12.658Z,7.35
2023-05-10T18:32:39.689Z,8.75
2023-05-10T18:35:07.763Z,7.50
2023-05-10T18:37:35.116Z,7.40
2023-05-10T18:40:01.967Z,7.22
2023-05-10T18:42:28.771Z,7.57
2023-05-10T18:44:55.879Z,6.45
2023-05-10T18:47:22.814Z,5.97
2023-05-10T18:49:49.664Z,6.32
2023-05-10T18:52:16.436Z,6.35
2023-05-10T18:54:43.429Z,7.18
2023-05-10T18:57:11.477Z,7.13
2023-05-10T18:59:38.350Z,8.15
2023-05-10T19:02:05.413Z,7.75
2023-05-10T19:04:32.312Z,7.15
2023-05-10T19:07:00.807Z,6.72
2023-05-10T19:09:27.738Z,6.30
2023-05-10T19:11:54.568Z,6.22
2023-05-10T19:14:21.478Z,7.03
2023-05-10T19:16:51.241Z,7.88
2023-05-10T19:19:20.249Z,7.35
2023-05-10T19:21:47.484Z,7.32
2023-05-10T19:24:14.333Z,8.02
2023-05-10T19:26:41.085Z,8.40
2023-05-10T19:29:07.835Z,7.70
2023-05-10T19:31:35.358Z,6.15
2023-05-10T19:34:05.480Z,7.32
2023-05-10T19:36:34.254Z,7.30
2023-05-10T19:39:01.136Z,6.68
2023-05-10T19:41:27.935Z,6.75
2023-05-10T19:43:54.722Z,6.95
2023-05-10T19:46:21.592Z,5.57
2023-05-10T19:48:50.055Z,6.10
2023-05-10T19:51:16.878Z,6.30
2023-05-10T19:53:44.701Z,6.97
2023-05-10T19:56:12.666Z,7.38
2023-05-10T19:58:39.518Z,7.60
2023-05-10T20:01:07.740Z,6.32
2023-05-10T20:03:36.149Z,6.53
2023-05-10T20:06:03.936Z,6.57
2023-05-10T20:08:31.347Z,6.82
2023-05-10T20:11:00.507Z,8.25
2023-05-10T20:13:27.488Z,6.57
2023-05-10T20:16:00.590Z,7.13
2023-05-10T20:18:27.558Z,6.45
2023-05-10T20:20:58.580Z,6.15
2023-05-10T20:23:25.620Z,7.80
2023-05-10T20:25:52.761Z,7.53
2023-05-10T20:28:25.094Z,8.23
2023-05-10T20:30:56.204Z,7.57
2023-05-10T20:33:23.293Z,7.05
2023-05-10T20:35:51.208Z,6.47
2023-05-10T20:38:18.271Z,5.65
2023-05-10T20:40:45.592Z,7.00
2023-05-10T20:43:12.553Z,6.13
2023-05-10T20:45:39.383Z,6.93
2023-05-10T20:48:06.395Z,6.50
2023-05-10T20:50:33.233Z,7.43
2023-05-10T20:53:01.060Z,7.13
2023-05-10T20:55:28.376Z,7.68
2023-05-10T20:57:55.246Z,8.25
2023-05-10T21:00:22.141Z,6.95
2023-05-10T21:02:48.992Z,6.53
2023-05-10T21:05:18.339Z,8.07
2023-05-10T21:07:45.201Z,9.00
2023-05-10T21:10:12.337Z,9.25
2023-05-10T21:12:39.192Z,7.90
2023-05-10T21:15:06.726Z,8.02
2023-05-10T21:17:33.529Z,9.00
2023-05-10T21:20:00.701Z,8.00
2023-05-10T21:22:27.621Z,9.00
2023-05-10T21:24:54.505Z,8.18
2023-05-10T21:27:21.332Z,8.50
2023-05-10T21:29:48.196Z,9.02
2023-05-10T21:32:15.043Z,8.40
2023-05-10T21:34:42.001Z,8.52
2023-05-10T21:37:08.916Z,8.13
2023-05-10T21:39:35.989Z,7.88
2023-05-10T21:42:03.540Z,8.25
2023-05-10T21:44:31.366Z,7.80
2023-05-10T21:46:58.189Z,9.15
2023-05-10T21:49:24.999Z,9.32
2023-05-10T21:51:52.032Z,8.27
2023-05-10T21:54:18.917Z,7.55
2023-05-10T21:56:45.779Z,8.63
2023-05-10T21:59:12.566Z,9.30
2023-05-10T22:01:39.414Z,8.43
2023-05-10T22:04:06.195Z,8.82
2023-05-10T22:06:32.980Z,7.93
2023-05-10T22:08:59.890Z,8.25
2023-05-10T22:11:29.308Z,8.75
2023-05-10T22:13:56.206Z,11.50
2023-05-10T22:16:23.044Z,11.18
2023-05-10T22:18:49.946Z,11.43
2023-05-10T22:21:16.823Z,13.18
2023-05-10T22:23:43.658Z,14.55
2023-05-10T22:26:10.424Z,13.13
2023-05-10T22:28:37.217Z,13.73
2023-05-10T22:31:08.620Z,14.45
2023-05-10T22:33:35.418Z,13.60
2023-05-10T22:36:02.259Z,12.95
2023-05-10T22:38:29.010Z,13.85
2023-05-10T22:40:55.812Z,12.40
2023-05-10T22:43:22.579Z,12.02
2023-05-10T22:45:49.815Z,12.27
2023-05-10T22:48:16.632Z,12.10
2023-05-10T22:50:43.420Z,13.63
2023-05-10T22:53:10.679Z,11.25
2023-05-10T22:55:37.508Z,11.70
2023-05-10T22:58:04.287Z,10.85
2023-05-10T23:00:31.106Z,11.23
2023-05-10T23:02:57.963Z,10.23
2023-05-10T23:05:24.794Z,9.52
2023-05-10T23:07:53.421Z,10.27
2023-05-10T23:10:20.660Z,9.65
2023-05-10T23:12:47.909Z,11.10
2023-05-10T23:15:14.800Z,10.55
2023-05-10T23:17:41.662Z,9.35
2023-05-10T23:20:09.100Z,9.13
2023-05-10T23:22:36.083Z,10.75
2023-05-10T23:25:02.938Z,10.20
2023-05-10T23:27:30.446Z,9.75
2023-05-10T23:29:57.776Z,10.27
2023-05-10T23:32:24.610Z,9.77
2023-05-10T23:34:51.450Z,9.43
2023-05-10T23:37:18.283Z,8.70
2023-05-10T23:39:45.109Z,8.52
2023-05-10T23:42:11.895Z,9.13
2023-05-10T23:44:38.779Z,9.57
2023-05-10T23:47:05.948Z,9.70
2023-05-10T23:49:32.898Z,9.77
2023-05-10T23:51:59.784Z,9.25
2023-05-10T23:54:26.574Z,8.75
2023-05-10T23:56:53.379Z,10.15
2023-05-10T23:59:20.258Z,8.93
